Logan, Oklahoma
Current Conditions -  °F | °C
As of 5:55 AM on Thursday 27 Nov 2014 (Local Time) from KWWR Reporting Station
Clear Clear  
Wind Chill: 15°   Ceiling: Unl
Heat Index: 23°   Visibility: 10mi
Dew Point: 19°   Wind: 7mph
Humidity: 86%   Direction: 220°SW
Pressure: 30.49"   Gusts: NA
Location:  36.6998°N, 99.856°W
Report Text: KWWR 271155Z AUTO 22006KT 10SM CLR M05/M07 A3049 RMK AO2
Loading
Personal Weather Stations






























Interactive Weather Map New forecast layout! Learn more

10-Day Weather Forecast

Advertisements
Track Severe Weather on mobile